If you wish to contribute or participate in the discussions about articles you are invited to join SKYbrary as a registered user

 Actions

Toronto Island

From SKYbrary Wiki

CYTZ /
Revision as of 11:21, 8 June 2010 by Editor1 (talk | contribs) (Created page with '{{Airport |Airport_Name=Toronto Island |ICAO_Region=NAM |ICAO_Territory=C |Location=toronto, Canada |Coordinates=43.628343° N, 79.396073° W }} __NOTOC__ =Toronto Island Airport…')
(diff) ← Older revision | Latest revision (diff) | Newer revision → (diff)
Airport
ICAO: CYTZ
Summary
Name Toronto Island
Region North America
Territory Canada CA.gif
Location toronto, Canada
Serving
Coordinates 43° 37' 42.03" N, 79° 23' 45.86" W
Runways
Designator Length Width Surface ROPS
6/24 894 m2,933.071 ft <br /> 46 m150.919 ft <br /> ASP yes/yes
8/26 1216 m3,989.501 ft <br /> 46 m150.919 ft <br /> ASP yes/yes
15/33 847 m2,778.871 ft <br /> 46 m150.919 ft <br /> ASP yes/yes


METAR
Observation CYTZ 141700Z AUTO 19012KT 9SM FEW039 19/16 A2979 RMK SLP088 DENSITY ALT 1000FT
Station Toronto Island Airport Automated Reporting Station
Date/Time 14 June 2021 17:00:00
Wind direction 190°
Wind speed 12 kts
Lowest cloud amount few clouds
Temperature 19°C
Dew point 16°C
Humidity 82%
QNH hPa
Weather condition n/a


Toronto Island Airport

ICAO: CYTZ IATA: YTZ

Description

International airport serving...

Climatology

Maps

Terrain

Loading map...

Airport Layout

Loading map...

Accidents & Serious Incidents at or in vicinity of CYTZ